createdAt,value
2022-12-09T00:01:36.640Z,29.00
2022-12-09T00:05:18.501Z,26.33
2022-12-09T00:09:01.129Z,24.45
2022-12-09T00:12:46.321Z,24.50
2022-12-09T00:16:28.274Z,28.70
2022-12-09T00:20:11.225Z,21.70
2022-12-09T00:23:54.848Z,22.80
2022-12-09T00:27:36.711Z,24.08
2022-12-09T00:31:26.971Z,25.33
2022-12-09T00:35:09.162Z,27.25
2022-12-09T00:38:51.537Z,23.83
2022-12-09T00:42:33.583Z,20.92
2022-12-09T00:46:16.715Z,21.40
2022-12-09T00:49:58.776Z,24.77
2022-12-09T00:53:40.701Z,25.65
2022-12-09T00:57:22.477Z,22.20
2022-12-09T01:01:04.760Z,24.55
2022-12-09T01:04:49.610Z,26.17
2022-12-09T01:08:33.840Z,19.75
2022-12-09T01:12:17.176Z,22.77
2022-12-09T01:15:59.057Z,21.33
2022-12-09T01:19:43.849Z,22.70
2022-12-09T01:23:25.722Z,22.08
2022-12-09T01:27:07.695Z,22.27
2022-12-09T01:30:49.532Z,25.38
2022-12-09T01:34:31.447Z,22.17
2022-12-09T01:38:13.185Z,22.63
2022-12-09T01:41:54.953Z,21.58
2022-12-09T01:45:41.534Z,22.92
2022-12-09T01:49:34.959Z,19.83
2022-12-09T01:53:20.050Z,23.35
2022-12-09T01:57:02.465Z,25.90
2022-12-09T02:00:45.152Z,21.77
2022-12-09T02:04:33.664Z,24.63
2022-12-09T02:08:18.697Z,22.00
2022-12-09T02:12:03.649Z,16.60
2022-12-09T02:15:52.411Z,20.88
2022-12-09T02:19:34.261Z,22.38
2022-12-09T02:23:25.042Z,21.75
2022-12-09T02:27:33.446Z,20.15
2022-12-09T02:31:27.733Z,25.23
2022-12-09T02:35:12.529Z,24.67
2022-12-09T02:38:54.650Z,21.00
2022-12-09T02:42:39.106Z,20.15
2022-12-09T02:46:22.569Z,21.33
2022-12-09T02:50:09.352Z,19.67
2022-12-09T02:53:59.275Z,22.45
2022-12-09T02:57:41.214Z,20.73
2022-12-09T03:01:29.564Z,22.55
2022-12-09T03:05:34.160Z,20.90
2022-12-09T03:09:22.397Z,26.15
2022-12-09T03:13:29.015Z,20.25
2022-12-09T03:17:33.576Z,21.77
2022-12-09T03:21:20.417Z,22.30
2022-12-09T03:25:14.155Z,18.35
2022-12-09T03:28:58.646Z,20.67
2022-12-09T03:32:43.053Z,19.10
2022-12-09T03:36:29.310Z,17.17
2022-12-09T03:40:15.750Z,21.05
2022-12-09T03:44:20.722Z,18.80
2022-12-09T03:48:03.089Z,18.20
2022-12-09T03:52:07.792Z,22.23
2022-12-09T03:56:01.332Z,21.33
2022-12-09T03:59:46.150Z,23.15
2022-12-09T04:03:28.469Z,27.45
2022-12-09T04:07:11.023Z,25.33
2022-12-09T04:10:52.866Z,19.38
2022-12-09T04:14:34.644Z,25.08
2022-12-09T04:18:16.415Z,16.73
2022-12-09T04:21:58.931Z,25.17
2022-12-09T04:25:40.966Z,20.60
2022-12-09T04:29:23.024Z,16.23
2022-12-09T04:33:05.162Z,23.10
2022-12-09T04:36:48.644Z,20.67
2022-12-09T04:40:30.805Z,20.73
2022-12-09T04:44:12.874Z,18.55
2022-12-09T04:47:55.072Z,17.50
2022-12-09T04:51:39.929Z,17.52
2022-12-09T04:55:22.440Z,18.02
2022-12-09T04:59:05.528Z,18.60
2022-12-09T05:02:47.644Z,17.27
2022-12-09T05:06:29.759Z,16.85
2022-12-09T05:10:12.837Z,20.33
2022-12-09T05:13:55.472Z,20.27
2022-12-09T05:17:37.888Z,16.40
2022-12-09T05:21:21.136Z,20.52
2022-12-09T05:25:03.630Z,21.35
2022-12-09T05:28:45.776Z,17.65
2022-12-09T05:32:30.622Z,17.38
2022-12-09T05:36:14.453Z,20.80
2022-12-09T05:39:56.529Z,21.75
2022-12-09T05:43:39.004Z,18.98
2022-12-09T05:47:21.299Z,19.23
2022-12-09T05:51:07.489Z,19.10
2022-12-09T05:54:49.793Z,20.42
2022-12-09T05:58:32.068Z,24.20
2022-12-09T06:02:14.108Z,18.02
2022-12-09T06:05:56.217Z,18.98
2022-12-09T06:09:38.241Z,19.58
2022-12-09T06:13:20.073Z,17.80
2022-12-09T06:17:02.523Z,18.35
2022-12-09T06:20:44.444Z,20.85
2022-12-09T06:24:26.367Z,21.15
2022-12-09T06:28:08.161Z,20.40
2022-12-09T06:31:50.268Z,22.50
2022-12-09T06:35:32.476Z,24.40
2022-12-09T06:39:14.398Z,26.17
2022-12-09T06:42:56.586Z,22.52
2022-12-09T06:46:38.511Z,21.02
2022-12-09T06:50:21.215Z,24.35
2022-12-09T06:54:03.770Z,25.00
2022-12-09T06:57:46.210Z,24.77
2022-12-09T07:01:28.508Z,24.98
2022-12-09T07:05:11.472Z,20.65
2022-12-09T07:08:54.253Z,19.60
2022-12-09T07:12:37.131Z,23.17
2022-12-09T07:16:19.417Z,20.27
2022-12-09T07:20:06.674Z,23.40
2022-12-09T07:23:49.875Z,23.55
2022-12-09T07:27:32.724Z,22.08
2022-12-09T07:31:26.579Z,23.77
2022-12-09T07:35:09.967Z,26.92
2022-12-09T07:39:02.601Z,22.98
2022-12-09T07:42:45.267Z,20.65
2022-12-09T07:46:30.089Z,23.85
2022-12-09T07:50:12.395Z,28.02
2022-12-09T07:53:54.882Z,27.60
2022-12-09T07:57:38.606Z,23.65
2022-12-09T08:01:26.765Z,25.48
2022-12-09T08:05:10.098Z,22.27
2022-12-09T08:08:53.125Z,24.42
2022-12-09T08:12:35.580Z,26.27
2022-12-09T08:16:20.531Z,22.13
2022-12-09T08:20:03.034Z,23.65
2022-12-09T08:23:45.725Z,21.42
2022-12-09T08:27:28.127Z,23.02
2022-12-09T08:31:13.442Z,25.30
2022-12-09T08:34:56.650Z,22.33
2022-12-09T08:38:38.807Z,24.70
2022-12-09T08:42:20.680Z,24.50
2022-12-09T08:46:02.555Z,23.92
2022-12-09T08:49:44.469Z,25.13
2022-12-09T08:53:26.566Z,21.95
2022-12-09T08:57:08.908Z,21.55
2022-12-09T09:00:50.983Z,23.02
2022-12-09T09:04:33.864Z,26.48
2022-12-09T09:08:15.935Z,25.23
2022-12-09T09:11:57.909Z,26.05
2022-12-09T09:15:40.446Z,23.50
2022-12-09T09:19:25.748Z,24.13
2022-12-09T09:23:07.643Z,23.27
2022-12-09T09:26:51.148Z,23.63
2022-12-09T09:30:33.144Z,26.98
2022-12-09T09:34:17.861Z,24.02
2022-12-09T09:38:00.035Z,24.70
2022-12-09T09:41:53.605Z,26.83
2022-12-09T09:45:35.997Z,27.25
2022-12-09T09:49:32.734Z,27.67
2022-12-09T09:53:35.610Z,25.23
2022-12-09T09:57:29.270Z,27.42
2022-12-09T10:01:16.949Z,25.13
2022-12-09T10:05:23.020Z,24.45
2022-12-09T10:09:28.394Z,22.40
2022-12-09T10:13:47.218Z,21.98
2022-12-09T10:17:39.297Z,18.88
2022-12-09T10:21:21.862Z,20.35
2022-12-09T10:25:23.279Z,15.18
2022-12-09T10:29:18.701Z,14.82
2022-12-09T10:33:00.706Z,15.20
2022-12-09T10:36:45.466Z,12.35
2022-12-09T10:40:38.848Z,12.82
2022-12-09T10:44:23.936Z,11.38
2022-12-09T10:48:05.897Z,11.07
2022-12-09T10:51:50.251Z,12.45
2022-12-09T10:55:41.191Z,12.32
2022-12-09T10:59:29.984Z,12.18
2022-12-09T11:03:26.506Z,11.27
2022-12-09T11:07:22.909Z,13.18
2022-12-09T11:11:05.258Z,13.98
2022-12-09T11:14:56.273Z,14.13
2022-12-09T11:18:47.280Z,12.60
2022-12-09T11:22:40.281Z,14.07
2022-12-09T11:26:25.888Z,14.20
2022-12-09T11:30:14.275Z,15.35
2022-12-09T11:33:59.605Z,14.15
2022-12-09T11:37:42.033Z,15.90
2022-12-09T11:41:45.225Z,19.60
2022-12-09T11:45:34.685Z,17.98
2022-12-09T11:49:17.531Z,20.33
2022-12-09T11:53:13.087Z,20.70
2022-12-09T11:56:58.966Z,17.33
2022-12-09T12:00:49.009Z,21.42
2022-12-09T12:04:40.035Z,15.07
2022-12-09T12:08:34.076Z,17.08
2022-12-09T12:12:27.894Z,17.67
2022-12-09T12:16:18.431Z,22.90
2022-12-09T12:20:00.399Z,21.27
2022-12-09T12:24:13.970Z,18.42
2022-12-09T12:28:14.287Z,21.15
2022-12-09T12:32:21.500Z,14.88
2022-12-09T12:40:07.929Z,19.77
2022-12-09T12:44:17.392Z,18.90
2022-12-09T12:48:25.073Z,17.10
2022-12-09T12:52:12.740Z,19.75
2022-12-09T12:56:25.376Z,19.73
2022-12-09T13:00:17.263Z,17.70
2022-12-09T13:04:36.391Z,19.58
2022-12-09T13:08:39.194Z,19.30
2022-12-09T13:12:50.693Z,18.90
2022-12-09T13:16:39.635Z,15.48
2022-12-09T13:20:28.333Z,21.88
2022-12-09T13:24:15.290Z,20.52
2022-12-09T13:28:03.654Z,18.15
2022-12-09T13:32:23.371Z,24.52
2022-12-09T13:36:36.809Z,21.65
2022-12-09T13:40:21.722Z,23.58
2022-12-09T13:44:13.421Z,22.73
2022-12-09T13:47:57.150Z,19.85
2022-12-09T13:51:51.657Z,25.63
2022-12-09T13:55:40.270Z,22.58
2022-12-09T13:59:51.226Z,20.05
2022-12-09T14:03:37.409Z,23.13
2022-12-09T14:07:25.326Z,23.77
2022-12-09T14:11:51.975Z,21.02
2022-12-09T14:15:35.925Z,19.63
2022-12-09T14:19:23.838Z,21.38
2022-12-09T14:23:08.294Z,19.25
2022-12-09T14:26:52.777Z,19.25
2022-12-09T14:30:34.441Z,17.75
2022-12-09T14:34:27.211Z,19.15
2022-12-09T14:38:29.736Z,20.63
2022-12-09T14:42:33.080Z,22.10
2022-12-09T14:46:36.317Z,19.00
2022-12-09T14:50:22.242Z,17.10
2022-12-09T14:54:33.637Z,18.88
2022-12-09T14:58:21.476Z,18.23
2022-12-09T15:02:20.034Z,15.20
2022-12-09T15:06:11.118Z,13.95
2022-12-09T15:10:01.398Z,18.40
2022-12-09T15:13:46.013Z,20.73
2022-12-09T15:17:32.798Z,15.05
2022-12-09T15:21:27.188Z,16.10
2022-12-09T15:25:17.980Z,16.17
2022-12-09T15:29:01.310Z,18.08
2022-12-09T15:32:45.101Z,17.65
2022-12-09T15:36:36.574Z,21.48
2022-12-09T15:40:22.154Z,18.88
2022-12-09T15:44:09.657Z,22.42
2022-12-09T15:51:36.553Z,19.38
2022-12-09T15:55:40.255Z,17.88
2022-12-09T15:59:25.244Z,17.10
2022-12-09T16:03:08.309Z,18.15
2022-12-09T16:06:50.992Z,19.10
2022-12-09T16:10:46.069Z,15.65
2022-12-09T16:14:41.724Z,18.23
2022-12-09T16:18:34.353Z,17.98
2022-12-09T16:22:29.741Z,18.35
2022-12-09T16:26:20.040Z,19.23
2022-12-09T16:30:10.534Z,20.95
2022-12-09T16:33:52.602Z,19.38
2022-12-09T16:37:56.757Z,22.08
2022-12-09T16:41:50.873Z,23.70
2022-12-09T16:45:36.962Z,19.73
2022-12-09T16:49:18.946Z,28.73
2022-12-09T16:53:00.968Z,27.23
2022-12-09T16:56:42.835Z,25.25
2022-12-09T17:00:25.262Z,34.88
2022-12-09T17:04:24.412Z,32.35
2022-12-09T17:08:06.194Z,30.48
2022-12-09T17:11:49.130Z,33.65
2022-12-09T17:15:31.201Z,25.83
2022-12-09T17:19:12.944Z,27.27
2022-12-09T17:22:54.702Z,31.98
2022-12-09T17:26:36.411Z,29.80
2022-12-09T17:30:18.267Z,25.02
2022-12-09T17:34:00.038Z,25.27
2022-12-09T17:37:42.874Z,24.35
2022-12-09T17:41:24.671Z,25.52
2022-12-09T17:45:07.229Z,27.02
2022-12-09T17:48:49.130Z,26.10
2022-12-09T17:52:30.898Z,23.23
2022-12-09T17:56:19.753Z,28.67
2022-12-09T18:00:01.739Z,26.50
2022-12-09T18:04:02.987Z,27.92
2022-12-09T18:07:45.423Z,28.85
2022-12-09T18:11:27.565Z,21.00
2022-12-09T18:15:09.650Z,28.45
2022-12-09T18:18:51.420Z,23.38
2022-12-09T18:22:33.330Z,23.00
2022-12-09T18:26:17.694Z,25.95
2022-12-09T18:29:59.481Z,29.63
2022-12-09T18:33:41.961Z,26.73
2022-12-09T18:37:25.787Z,24.75
2022-12-09T18:41:18.036Z,31.98
2022-12-09T18:44:59.816Z,24.35
2022-12-09T18:48:44.538Z,28.63
2022-12-09T18:52:26.250Z,34.63
2022-12-09T18:56:08.248Z,35.90
2022-12-09T18:59:50.450Z,27.75
2022-12-09T19:03:32.159Z,25.05
2022-12-09T19:07:14.486Z,29.08
2022-12-09T19:10:56.586Z,30.25
2022-12-09T19:14:38.666Z,30.48
2022-12-09T19:18:20.441Z,25.80
2022-12-09T19:22:03.668Z,29.83
2022-12-09T19:25:45.384Z,28.85
2022-12-09T19:29:28.188Z,31.02
2022-12-09T19:33:09.993Z,33.45
2022-12-09T19:36:53.343Z,27.50
2022-12-09T19:40:36.564Z,31.48
2022-12-09T19:44:37.383Z,27.52
2022-12-09T19:48:22.053Z,27.33
2022-12-09T19:52:03.835Z,31.40
2022-12-09T19:55:46.195Z,23.52
2022-12-09T19:59:28.418Z,26.15
2022-12-09T20:03:10.616Z,25.70
2022-12-09T20:06:52.490Z,26.45
2022-12-09T20:10:34.266Z,21.73
2022-12-09T20:14:16.025Z,24.50
2022-12-09T20:17:57.825Z,25.80
2022-12-09T20:21:40.589Z,25.35
2022-12-09T20:25:22.495Z,29.52
2022-12-09T20:29:07.385Z,26.90
2022-12-09T20:32:49.207Z,28.60
2022-12-09T20:36:33.689Z,27.77
2022-12-09T20:40:15.497Z,28.98
2022-12-09T20:44:01.536Z,31.52
2022-12-09T20:47:43.238Z,31.30
2022-12-09T20:51:37.353Z,23.00
2022-12-09T20:55:20.510Z,26.92
2022-12-09T20:59:02.317Z,26.58
2022-12-09T21:02:44.017Z,26.17
2022-12-09T21:06:30.278Z,24.88
2022-12-09T21:10:12.004Z,27.10
2022-12-09T21:13:58.946Z,24.13
2022-12-09T21:17:40.730Z,22.88
2022-12-09T21:21:24.017Z,25.17
2022-12-09T21:25:06.300Z,22.00
2022-12-09T21:28:48.335Z,28.80
2022-12-09T21:32:31.388Z,23.27
2022-12-09T21:36:24.513Z,24.65
2022-12-09T21:40:07.416Z,28.42
2022-12-09T21:43:49.614Z,30.83
2022-12-09T21:47:32.569Z,33.63
2022-12-09T21:51:14.844Z,29.42
2022-12-09T21:54:58.103Z,28.58
2022-12-09T21:58:42.611Z,29.50
2022-12-09T22:02:24.367Z,28.95
2022-12-09T22:06:07.584Z,31.60
2022-12-09T22:09:49.863Z,30.17
2022-12-09T22:13:36.203Z,28.63
2022-12-09T22:17:21.099Z,29.33
2022-12-09T22:21:26.690Z,27.38
2022-12-09T22:25:12.461Z,25.45
2022-12-09T22:28:54.533Z,29.60
2022-12-09T22:32:41.050Z,30.38
2022-12-09T22:36:26.400Z,26.38
2022-12-09T22:40:09.104Z,26.38
2022-12-09T22:43:51.573Z,30.88
2022-12-09T22:47:33.306Z,30.70
2022-12-09T22:51:17.938Z,25.10
2022-12-09T22:54:59.702Z,27.95
2022-12-09T22:58:41.604Z,32.13
2022-12-09T23:02:23.565Z,31.52
2022-12-09T23:06:06.655Z,27.38
2022-12-09T23:09:48.373Z,31.75
2022-12-09T23:13:33.843Z,28.40
2022-12-09T23:17:18.078Z,29.65
2022-12-09T23:21:08.454Z,26.95
2022-12-09T23:24:53.052Z,28.15
2022-12-09T23:28:46.657Z,25.50
2022-12-09T23:32:28.381Z,28.23
2022-12-09T23:36:13.416Z,23.00
2022-12-09T23:39:55.471Z,29.50
2022-12-09T23:43:38.406Z,26.98
2022-12-09T23:47:20.149Z,28.27
2022-12-09T23:51:19.595Z,23.23
2022-12-09T23:55:04.560Z,24.10
2022-12-09T23:58:47.085Z,24.30
